Time;durP1;ratioP1;P1;durP2;ratioP2;P2;SDS_P1;SDS_P2;PMS_P1;PMS_P2;Temp;Humidity;BMP_temperature;BMP_pressure;BME280_temperature;BME280_humidity;BME280_pressure;Samples;Min_cycle;Max_cycle;Signal;HPM_P1;HPM_P2
2022/05/08 00:00:12;;;;;;;16.63;13.10;;;;;;;;;;4984288;28;20158;-83
2022/05/08 00:02:41;;;;;;;17.40;12.90;;;;;;;;;;4983826;28;20053;-83
2022/05/08 00:05:08;;;;;;;17.85;13.50;;;;;;;;;;4983434;28;20491;-83
2022/05/08 00:07:34;;;;;;;17.90;13.18;;;;;;;;;;4984427;28;20039;-81
2022/05/08 00:09:59;;;;;;;17.95;13.30;;;;;;;;;;4984368;28;20042;-82
2022/05/08 00:12:25;;;;;;;17.08;13.13;;;;;;;;;;4983276;28;20045;-82
2022/05/08 00:14:50;;;;;;;20.17;14.02;;;;;;;;;;4984148;28;20098;-83
2022/05/08 00:17:16;;;;;;;17.02;13.30;;;;;;;;;;4999953;28;20061;-83
2022/05/08 00:19:43;;;;;;;17.65;13.02;;;;;;;;;;4984675;28;20113;-83
2022/05/08 00:22:10;;;;;;;17.58;13.68;;;;;;;;;;4985194;28;20487;-82
2022/05/08 00:24:36;;;;;;;20.70;14.32;;;;;;;;;;4985725;28;20068;-82
2022/05/08 00:27:02;;;;;;;19.08;14.60;;;;;;;;;;4984976;28;20446;-82
2022/05/08 00:29:27;;;;;;;19.33;14.43;;;;;;;;;;4984626;28;20113;-82
2022/05/08 00:31:53;;;;;;;21.42;15.88;;;;;;;;;;4984650;28;20130;-82
2022/05/08 00:34:18;;;;;;;21.30;15.95;;;;;;;;;;4983928;28;20034;-82
2022/05/08 00:36:44;;;;;;;21.38;14.93;;;;;;;;;;4985306;28;20053;-82
2022/05/08 00:39:09;;;;;;;22.13;16.08;;;;;;;;;;4983465;28;20038;-83
2022/05/08 00:41:35;;;;;;;19.80;14.52;;;;;;;;;;4983554;28;20049;-83
2022/05/08 00:44:00;;;;;;;19.75;14.60;;;;;;;;;;4981712;28;20035;-82
2022/05/08 00:46:27;;;;;;;20.63;15.10;;;;;;;;;;4980715;28;20034;-83
2022/05/08 00:48:53;;;;;;;17.48;13.38;;;;;;;;;;4982673;28;20035;-82
2022/05/08 00:51:19;;;;;;;21.25;15.88;;;;;;;;;;4980799;28;20041;-82
2022/05/08 00:53:50;;;;;;;19.83;14.85;;;;;;;;;;4981980;28;20035;-83
2022/05/08 00:56:18;;;;;;;19.70;15.38;;;;;;;;;;4981899;28;20117;-83
2022/05/08 00:58:47;;;;;;;19.58;14.88;;;;;;;;;;4982525;28;20128;-83
2022/05/08 01:01:13;;;;;;;19.83;14.68;;;;;;;;;;4981388;28;20059;-82
2022/05/08 01:03:40;;;;;;;19.95;15.25;;;;;;;;;;4981230;28;20038;-82
2022/05/08 01:06:11;;;;;;;18.90;13.65;;;;;;;;;;4980623;28;20126;-82
2022/05/08 01:08:38;;;;;;;20.33;14.70;;;;;;;;;;4982106;28;20039;-83
2022/05/08 01:11:05;;;;;;;19.50;14.13;;;;;;;;;;4981708;28;20031;-83
2022/05/08 01:13:31;;;;;;;20.60;14.95;;;;;;;;;;4979971;28;20037;-82
2022/05/08 01:15:56;;;;;;;19.65;15.38;;;;;;;;;;4980685;28;20035;-82
2022/05/08 01:18:22;;;;;;;23.02;15.95;;;;;;;;;;4981253;28;20137;-82
2022/05/08 01:20:48;;;;;;;18.70;13.98;;;;;;;;;;4980780;28;20038;-81
2022/05/08 01:23:19;;;;;;;19.75;14.80;;;;;;;;;;4981557;28;20027;-82
2022/05/08 01:25:48;;;;;;;21.35;15.65;;;;;;;;;;4980592;28;20047;-83
2022/05/08 01:28:14;;;;;;;23.38;16.20;;;;;;;;;;4995780;28;20085;-82
2022/05/08 01:30:44;;;;;;;24.98;16.52;;;;;;;;;;4979958;28;20439;-82
2022/05/08 01:33:10;;;;;;;21.63;15.57;;;;;;;;;;4981524;28;20046;-82
2022/05/08 01:35:37;;;;;;;23.83;16.52;;;;;;;;;;4980533;28;20030;-82
2022/05/08 01:38:06;;;;;;;21.90;16.13;;;;;;;;;;4980629;28;20457;-82
2022/05/08 01:40:34;;;;;;;24.92;16.67;;;;;;;;;;4981196;28;20041;-83
2022/05/08 01:43:02;;;;;;;23.52;16.25;;;;;;;;;;4980475;28;20039;-83
2022/05/08 01:45:28;;;;;;;21.85;15.43;;;;;;;;;;4980707;28;20074;-82
2022/05/08 01:50:37;;;;;;;25.10;16.70;;;;;;;;;;4980904;28;20030;-83
2022/05/08 01:53:03;;;;;;;22.67;16.40;;;;;;;;;;4980847;28;20166;-83
2022/05/08 01:55:30;;;;;;;24.20;17.38;;;;;;;;;;4980095;28;20034;-82
2022/05/08 01:57:56;;;;;;;24.60;17.55;;;;;;;;;;4979161;28;20034;-82
2022/05/08 02:00:22;;;;;;;24.85;17.60;;;;;;;;;;4963269;28;20042;-82
2022/05/08 02:02:49;;;;;;;25.23;17.90;;;;;;;;;;4980787;28;20058;-82
2022/05/08 02:05:16;;;;;;;26.13;17.90;;;;;;;;;;4978988;28;20038;-82
2022/05/08 02:07:44;;;;;;;26.77;18.23;;;;;;;;;;4980653;28;20042;-83
2022/05/08 02:10:09;;;;;;;24.92;17.70;;;;;;;;;;4979680;28;20039;-83
2022/05/08 02:12:34;;;;;;;25.58;16.83;;;;;;;;;;4980593;28;20097;-83
2022/05/08 02:15:00;;;;;;;22.70;16.83;;;;;;;;;;4979970;28;20035;-83
2022/05/08 02:17:26;;;;;;;24.45;18.15;;;;;;;;;;4980511;28;20610;-83
2022/05/08 02:19:51;;;;;;;25.20;16.98;;;;;;;;;;4980476;28;20049;-82
2022/05/08 02:22:17;;;;;;;25.23;18.25;;;;;;;;;;4979691;28;20107;-83
2022/05/08 02:24:42;;;;;;;26.02;18.58;;;;;;;;;;4980164;28;20031;-83
2022/05/08 02:27:07;;;;;;;29.83;19.80;;;;;;;;;;4980027;28;20057;-82
2022/05/08 02:29:34;;;;;;;27.13;19.23;;;;;;;;;;4979222;28;20022;-82
2022/05/08 02:32:00;;;;;;;24.50;17.65;;;;;;;;;;4980055;28;20096;-82
2022/05/08 02:34:25;;;;;;;23.90;16.90;;;;;;;;;;4979602;28;20092;-82
2022/05/08 02:36:51;;;;;;;25.38;18.48;;;;;;;;;;4979941;28;20107;-82
2022/05/08 02:39:16;;;;;;;23.35;17.80;;;;;;;;;;4979635;28;20062;-83
2022/05/08 02:41:42;;;;;;;26.80;18.33;;;;;;;;;;4978893;28;20566;-82
2022/05/08 02:44:07;;;;;;;25.15;17.98;;;;;;;;;;4977966;28;20031;-82
2022/05/08 02:46:33;;;;;;;23.83;17.85;;;;;;;;;;4976167;28;20038;-83
2022/05/08 02:48:58;;;;;;;23.25;16.75;;;;;;;;;;4980251;28;20035;-83
2022/05/08 02:51:24;;;;;;;22.20;15.32;;;;;;;;;;4979887;28;20041;-82
2022/05/08 02:53:49;;;;;;;24.80;17.73;;;;;;;;;;4978978;28;20031;-82
2022/05/08 02:58:59;;;;;;;24.17;17.48;;;;;;;;;;4979885;28;20086;-83
2022/05/08 03:01:24;;;;;;;25.08;17.45;;;;;;;;;;4979387;28;20023;-82
2022/05/08 03:03:50;;;;;;;28.45;18.45;;;;;;;;;;4979367;28;20049;-83
2022/05/08 03:06:15;;;;;;;26.60;18.17;;;;;;;;;;4978556;28;20025;-83
2022/05/08 03:08:41;;;;;;;25.45;17.63;;;;;;;;;;4979701;28;20080;-82
2022/05/08 03:13:51;;;;;;;28.35;19.25;;;;;;;;;;4977599;28;20034;-83
2022/05/08 03:16:17;;;;;;;29.17;18.58;;;;;;;;;;4979578;28;20089;-83
2022/05/08 03:18:44;;;;;;;27.00;19.73;;;;;;;;;;4978775;28;20277;-82
2022/05/08 03:21:11;;;;;;;29.48;20.67;;;;;;;;;;4979108;28;20039;-82
2022/05/08 03:23:38;;;;;;;31.20;19.88;;;;;;;;;;4979580;28;20031;-82
2022/05/08 03:26:06;;;;;;;30.67;20.70;;;;;;;;;;4977688;28;20042;-83
2022/05/08 03:28:33;;;;;;;31.80;22.30;;;;;;;;;;4978797;28;20057;-83
2022/05/08 03:31:02;;;;;;;37.00;23.48;;;;;;;;;;4994368;28;20451;-82
2022/05/08 03:33:35;;;;;;;33.17;21.73;;;;;;;;;;4977722;28;20026;-83
2022/05/08 03:36:02;;;;;;;37.53;23.33;;;;;;;;;;4979464;28;20532;-82
2022/05/08 03:38:27;;;;;;;34.58;22.15;;;;;;;;;;4979318;28;20046;-82
2022/05/08 03:40:54;;;;;;;36.58;22.52;;;;;;;;;;4977989;28;20039;-82
2022/05/08 03:43:21;;;;;;;37.25;23.65;;;;;;;;;;4979017;28;20035;-82
2022/05/08 03:45:49;;;;;;;37.90;22.65;;;;;;;;;;4961178;28;20050;-83
2022/05/08 03:48:15;;;;;;;34.58;22.42;;;;;;;;;;4961585;28;20035;-82
2022/05/08 03:50:41;;;;;;;35.65;22.42;;;;;;;;;;4979178;28;20094;-83
2022/05/08 03:53:07;;;;;;;38.42;24.30;;;;;;;;;;4979412;28;20316;-83
2022/05/08 03:55:32;;;;;;;37.35;24.35;;;;;;;;;;4978956;28;20137;-82
2022/05/08 03:57:58;;;;;;;36.92;22.60;;;;;;;;;;4978374;28;20122;-82
2022/05/08 04:00:23;;;;;;;33.95;21.63;;;;;;;;;;4977002;28;20039;-83
2022/05/08 04:02:49;;;;;;;40.17;24.20;;;;;;;;;;4978298;28;20447;-82
2022/05/08 04:05:15;;;;;;;41.70;25.45;;;;;;;;;;4979259;28;20039;-83
2022/05/08 04:07:40;;;;;;;41.38;25.38;;;;;;;;;;4978817;28;20098;-82
2022/05/08 04:10:07;;;;;;;44.78;25.20;;;;;;;;;;4977151;28;20034;-83
2022/05/08 04:12:33;;;;;;;40.78;25.25;;;;;;;;;;4978817;28;20035;-83
2022/05/08 04:14:59;;;;;;;40.20;24.35;;;;;;;;;;4977843;28;20050;-83
2022/05/08 04:17:28;;;;;;;35.15;23.20;;;;;;;;;;4979718;28;20503;-82
2022/05/08 04:19:56;;;;;;;42.75;26.13;;;;;;;;;;4982342;28;20116;-82
2022/05/08 04:25:08;;;;;;;42.10;24.92;;;;;;;;;;4982653;28;20549;-83
2022/05/08 04:27:37;;;;;;;40.25;24.92;;;;;;;;;;4982226;28;20030;-83
2022/05/08 04:30:03;;;;;;;39.95;25.73;;;;;;;;;;4980822;28;20034;-83
2022/05/08 04:32:29;;;;;;;38.42;25.73;;;;;;;;;;4982404;28;20414;-82
2022/05/08 04:34:54;;;;;;;43.58;27.17;;;;;;;;;;4982397;28;20077;-81
2022/05/08 04:37:20;;;;;;;41.58;26.58;;;;;;;;;;4982287;28;20071;-81
2022/05/08 04:39:45;;;;;;;43.90;27.33;;;;;;;;;;4981627;28;20049;-82
2022/05/08 04:42:11;;;;;;;41.08;25.75;;;;;;;;;;4982308;28;20041;-83
2022/05/08 04:44:37;;;;;;;43.70;25.30;;;;;;;;;;4982018;28;20061;-82
2022/05/08 04:47:02;;;;;;;41.47;27.08;;;;;;;;;;4981400;28;20042;-82
2022/05/08 04:49:29;;;;;;;43.78;26.58;;;;;;;;;;4978749;28;20034;-81
2022/05/08 04:51:54;;;;;;;48.72;28.33;;;;;;;;;;4977537;28;20407;-82
2022/05/08 04:54:20;;;;;;;53.55;30.13;;;;;;;;;;4978020;28;20035;-82
2022/05/08 04:56:45;;;;;;;48.05;28.85;;;;;;;;;;4978555;28;20488;-82
2022/05/08 04:59:11;;;;;;;47.15;27.90;;;;;;;;;;4978775;28;20037;-82
2022/05/08 05:01:36;;;;;;;49.85;30.35;;;;;;;;;;4977146;28;20042;-82
2022/05/08 05:04:02;;;;;;;51.88;29.10;;;;;;;;;;4977182;28;20043;-82
2022/05/08 05:06:31;;;;;;;46.63;28.23;;;;;;;;;;4977896;28;20113;-82
2022/05/08 05:08:57;;;;;;;54.03;29.08;;;;;;;;;;4978489;28;20453;-82
2022/05/08 05:11:22;;;;;;;54.95;31.67;;;;;;;;;;4978327;28;20596;-82
2022/05/08 05:13:47;;;;;;;54.10;29.25;;;;;;;;;;4977719;28;20099;-81
2022/05/08 05:16:13;;;;;;;51.92;30.25;;;;;;;;;;4977873;28;20042;-82
2022/05/08 05:18:38;;;;;;;48.95;28.25;;;;;;;;;;4978404;28;20070;-82
2022/05/08 05:21:04;;;;;;;47.95;28.73;;;;;;;;;;4977345;28;20042;-82
2022/05/08 05:23:29;;;;;;;48.75;29.08;;;;;;;;;;4978058;28;20030;-82
2022/05/08 05:25:55;;;;;;;46.65;29.05;;;;;;;;;;4978072;28;20511;-82
2022/05/08 05:28:21;;;;;;;55.70;33.08;;;;;;;;;;4976911;28;20034;-82
2022/05/08 05:30:47;;;;;;;63.70;34.13;;;;;;;;;;4976585;28;20121;-82
2022/05/08 05:33:15;;;;;;;54.60;30.13;;;;;;;;;;4978301;28;20049;-82
2022/05/08 05:35:44;;;;;;;51.38;30.90;;;;;;;;;;4976813;28;20085;-82
2022/05/08 05:38:10;;;;;;;52.60;30.42;;;;;;;;;;4977714;28;20126;-82
2022/05/08 05:40:35;;;;;;;48.08;29.95;;;;;;;;;;4977757;28;20066;-82
2022/05/08 05:43:01;;;;;;;49.60;30.20;;;;;;;;;;4977611;28;20038;-82
2022/05/08 05:45:26;;;;;;;52.75;31.40;;;;;;;;;;4977277;28;20081;-82
2022/05/08 05:47:57;;;;;;;53.67;31.30;;;;;;;;;;4976766;28;20423;-82
2022/05/08 05:50:23;;;;;;;53.95;32.05;;;;;;;;;;4977877;28;20034;-82
2022/05/08 05:52:50;;;;;;;55.85;32.58;;;;;;;;;;4976316;28;20531;-82
2022/05/08 05:55:16;;;;;;;55.72;31.15;;;;;;;;;;4974942;28;20035;-82
2022/05/08 05:57:42;;;;;;;53.00;32.58;;;;;;;;;;4977904;28;20022;-82
2022/05/08 06:00:10;;;;;;;51.67;31.20;;;;;;;;;;4992255;28;20014;-82
2022/05/08 06:02:40;;;;;;;46.33;28.33;;;;;;;;;;4960677;28;20054;-82
2022/05/08 06:05:06;;;;;;;51.45;31.08;;;;;;;;;;4957841;28;20031;-82
2022/05/08 06:07:36;;;;;;;45.47;28.70;;;;;;;;;;4957275;28;20029;-82
2022/05/08 06:10:07;;;;;;;48.38;29.35;;;;;;;;;;4958254;28;20063;-82
2022/05/08 06:12:33;;;;;;;46.92;29.17;;;;;;;;;;4965607;28;20034;-82
2022/05/08 06:14:59;;;;;;;46.83;29.13;;;;;;;;;;4972499;28;20078;-82
2022/05/08 06:17:25;;;;;;;49.17;28.67;;;;;;;;;;4957073;28;20039;-82
2022/05/08 06:19:50;;;;;;;40.97;26.77;;;;;;;;;;4967367;28;20058;-82
2022/05/08 06:22:16;;;;;;;43.70;26.98;;;;;;;;;;4977157;28;20376;-82
2022/05/08 06:24:41;;;;;;;44.50;27.08;;;;;;;;;;4976994;28;20042;-81
2022/05/08 06:27:07;;;;;;;45.10;27.10;;;;;;;;;;4976201;28;20043;-83
2022/05/08 06:29:33;;;;;;;46.15;27.92;;;;;;;;;;4976748;28;20051;-81
2022/05/08 06:31:59;;;;;;;44.15;26.50;;;;;;;;;;4975826;28;20038;-82
2022/05/08 06:34:26;;;;;;;45.50;26.63;;;;;;;;;;4974679;28;20030;-82
2022/05/08 06:36:52;;;;;;;42.35;27.10;;;;;;;;;;4976642;28;20109;-84
2022/05/08 06:39:18;;;;;;;41.03;26.50;;;;;;;;;;4959780;28;20456;-82
2022/05/08 06:41:47;;;;;;;41.95;26.83;;;;;;;;;;4975869;28;20062;-82
2022/05/08 06:44:17;;;;;;;42.08;26.17;;;;;;;;;;4976351;28;20035;-82
2022/05/08 06:46:42;;;;;;;43.95;26.65;;;;;;;;;;4991764;28;20077;-82
2022/05/08 06:49:09;;;;;;;39.25;25.05;;;;;;;;;;4976407;28;20062;-82
2022/05/08 06:51:34;;;;;;;37.25;23.52;;;;;;;;;;4975639;28;20038;-82
2022/05/08 06:54:00;;;;;;;35.88;23.25;;;;;;;;;;4976610;28;20050;-82
2022/05/08 06:56:26;;;;;;;34.78;22.77;;;;;;;;;;4975195;28;20019;-82
2022/05/08 07:01:40;;;;;;;35.83;23.85;;;;;;;;;;4976280;28;20058;-82
2022/05/08 07:04:09;;;;;;;37.47;23.85;;;;;;;;;;4975569;28;20042;-82
2022/05/08 07:06:36;;;;;;;35.90;24.13;;;;;;;;;;4974392;28;20035;-82
2022/05/08 07:09:02;;;;;;;38.42;24.02;;;;;;;;;;4975763;28;20043;-82
2022/05/08 07:11:28;;;;;;;37.20;23.42;;;;;;;;;;4976459;28;20038;-82
2022/05/08 07:13:54;;;;;;;39.50;24.40;;;;;;;;;;4976200;28;20054;-83
2022/05/08 07:16:19;;;;;;;37.55;23.83;;;;;;;;;;4975960;28;20117;-84
2022/05/08 07:18:47;;;;;;;33.83;22.42;;;;;;;;;;4976072;28;20110;-82
2022/05/08 07:21:13;;;;;;;30.85;21.52;;;;;;;;;;4976479;28;20038;-83
2022/05/08 07:23:38;;;;;;;32.65;21.40;;;;;;;;;;4976361;28;20066;-83
2022/05/08 07:26:05;;;;;;;34.08;21.73;;;;;;;;;;4975287;28;20047;-82
2022/05/08 07:28:30;;;;;;;35.47;23.27;;;;;;;;;;4975220;28;20451;-82
2022/05/08 07:31:02;;;;;;;34.20;23.30;;;;;;;;;;4990868;28;20034;-84
2022/05/08 07:33:34;;;;;;;30.30;20.45;;;;;;;;;;4991212;28;20030;-82
2022/05/08 07:36:13;;;;;;;31.25;20.60;;;;;;;;;;4974352;28;20046;-82
2022/05/08 07:38:47;;;;;;;31.10;20.38;;;;;;;;;;4975037;28;20038;-83
2022/05/08 07:41:17;;;;;;;29.48;20.23;;;;;;;;;;4976369;28;20042;-82
2022/05/08 07:43:45;;;;;;;30.20;20.00;;;;;;;;;;4976139;28;20038;-83
2022/05/08 07:46:13;;;;;;;30.73;20.27;;;;;;;;;;4974241;28;20081;-82
2022/05/08 07:48:38;;;;;;;27.63;18.85;;;;;;;;;;4975991;28;20512;-84
2022/05/08 07:51:04;;;;;;;23.98;17.48;;;;;;;;;;4976015;28;20038;-82
2022/05/08 07:53:31;;;;;;;28.08;17.63;;;;;;;;;;4979625;28;20046;-81
2022/05/08 07:56:00;;;;;;;24.08;17.45;;;;;;;;;;4977092;28;20057;-81
2022/05/08 07:58:32;;;;;;;30.48;19.75;;;;;;;;;;4979216;28;20034;-81
2022/05/08 08:00:59;;;;;;;26.67;17.83;;;;;;;;;;4979150;28;20038;-81
2022/05/08 08:03:26;;;;;;;26.17;18.45;;;;;;;;;;4977598;28;20085;-80
2022/05/08 08:05:53;;;;;;;24.58;17.73;;;;;;;;;;4978831;28;20027;-82
2022/05/08 08:08:25;;;;;;;24.33;17.55;;;;;;;;;;4978569;28;20518;-81
2022/05/08 08:10:53;;;;;;;27.58;18.05;;;;;;;;;;4996420;28;20387;-82
2022/05/08 08:13:23;;;;;;;23.58;17.02;;;;;;;;;;4997341;28;20042;-81
2022/05/08 08:15:51;;;;;;;23.70;16.83;;;;;;;;;;4997506;28;20034;-81
2022/05/08 08:18:18;;;;;;;23.90;16.25;;;;;;;;;;4997897;28;20042;-81
2022/05/08 08:20:44;;;;;;;20.55;14.85;;;;;;;;;;4997866;28;20038;-81
2022/05/08 08:23:09;;;;;;;20.90;15.02;;;;;;;;;;4980391;28;20038;-82
2022/05/08 08:25:35;;;;;;;20.52;15.07;;;;;;;;;;4996604;28;20049;-82
2022/05/08 08:28:01;;;;;;;25.23;15.48;;;;;;;;;;4997957;28;20034;-81
2022/05/08 08:30:27;;;;;;;21.17;15.32;;;;;;;;;;4996656;28;20105;-81
2022/05/08 08:32:52;;;;;;;21.85;16.08;;;;;;;;;;4997325;28;20068;-81
2022/05/08 08:35:18;;;;;;;22.02;15.95;;;;;;;;;;4997970;28;20038;-81
2022/05/08 08:37:43;;;;;;;19.00;14.50;;;;;;;;;;4996139;28;20121;-81
2022/05/08 08:40:09;;;;;;;20.15;14.07;;;;;;;;;;4996588;28;20045;-81
2022/05/08 08:42:40;;;;;;;19.23;14.73;;;;;;;;;;4997289;28;20053;-81
2022/05/08 08:48:19;;;;;;;;;;;;;;;;;;4956503;29;20475;-81
2022/05/08 08:50:46;;;;;;;19.17;14.55;;;;;;;;;;4956448;29;19981;-82
2022/05/08 08:53:12;;;;;;;20.65;14.52;;;;;;;;;;4977535;28;20467;-82
2022/05/08 08:55:37;;;;;;;20.38;14.55;;;;;;;;;;4996952;28;20058;-82
2022/05/08 08:58:03;;;;;;;21.98;14.98;;;;;;;;;;4979117;28;20042;-81
2022/05/08 09:00:28;;;;;;;18.83;14.68;;;;;;;;;;4995999;28;20038;-81
2022/05/08 09:02:55;;;;;;;21.83;16.25;;;;;;;;;;4996068;28;20042;-81
2022/05/08 09:05:22;;;;;;;21.58;14.45;;;;;;;;;;4996348;28;20042;-82
2022/05/08 09:07:53;;;;;;;19.38;14.35;;;;;;;;;;4995326;28;20054;-82
2022/05/08 09:10:22;;;;;;;17.02;13.32;;;;;;;;;;4995480;28;20117;-82
2022/05/08 09:12:53;;;;;;;20.02;13.38;;;;;;;;;;4995323;28;20113;-81
2022/05/08 09:15:26;;;;;;;18.65;13.60;;;;;;;;;;4994915;28;20041;-82
2022/05/08 09:17:56;;;;;;;18.95;14.02;;;;;;;;;;4993704;28;20034;-81
2022/05/08 09:20:31;;;;;;;18.85;13.93;;;;;;;;;;5010796;28;20034;-82
2022/05/08 09:23:00;;;;;;;20.33;13.60;;;;;;;;;;4996107;28;20048;-82
2022/05/08 09:26:02;;;;;;;17.65;13.32;;;;;;;;;;4996718;28;20019;-81
2022/05/08 09:28:32;;;;;;;17.83;14.00;;;;;;;;;;5012055;28;20046;-82
2022/05/08 09:30:57;;;;;;;19.05;14.30;;;;;;;;;;4996742;28;20483;-82
2022/05/08 09:33:28;;;;;;;17.20;13.20;;;;;;;;;;4997088;28;20101;-82
2022/05/08 09:35:55;;;;;;;17.30;13.20;;;;;;;;;;4995436;28;20533;-80
2022/05/08 09:38:20;;;;;;;18.40;12.63;;;;;;;;;;4996878;28;20069;-82
2022/05/08 09:41:03;;;;;;;16.25;12.80;;;;;;;;;;4996673;28;20066;-81
2022/05/08 09:43:29;;;;;;;16.48;12.73;;;;;;;;;;4996764;28;20089;-81
2022/05/08 09:45:59;;;;;;;16.50;12.07;;;;;;;;;;4996648;28;20030;-82
2022/05/08 09:48:33;;;;;;;16.48;12.20;;;;;;;;;;4996936;28;20042;-82
2022/05/08 09:51:01;;;;;;;19.85;13.43;;;;;;;;;;4996904;28;20069;-82
2022/05/08 09:53:27;;;;;;;16.33;11.43;;;;;;;;;;4997761;28;20035;-82
2022/05/08 09:55:58;;;;;;;15.75;11.48;;;;;;;;;;4996472;28;20045;-80
2022/05/08 09:58:24;;;;;;;13.32;10.70;;;;;;;;;;4997952;28;20053;-81
2022/05/08 10:00:51;;;;;;;16.45;11.18;;;;;;;;;;4999631;28;20509;-80
2022/05/08 10:03:17;;;;;;;19.75;15.10;;;;;;;;;;4997633;28;20483;-80
2022/05/08 10:05:43;;;;;;;17.00;12.38;;;;;;;;;;4997372;28;20049;-81
2022/05/08 10:08:10;;;;;;;14.65;11.55;;;;;;;;;;4998420;28;20038;-81
2022/05/08 10:13:57;;;;;;;16.15;10.77;;;;;;;;;;4997960;28;20511;-81
2022/05/08 10:16:44;;;;;;;15.77;11.15;;;;;;;;;;4997034;28;20451;-82
2022/05/08 10:19:19;;;;;;;13.65;10.80;;;;;;;;;;4999295;28;20665;-81
2022/05/08 10:22:35;;;;;;;14.43;11.02;;;;;;;;;;4999634;28;20573;-81
2022/05/08 10:24:47;;;;;;;24.63;19.25;;;;;;;;;;4990259;28;20119;-81
2022/05/08 10:27:32;;;;;;;14.73;10.98;;;;;;;;;;4999164;28;20038;-81
2022/05/08 10:29:57;;;;;;;14.32;10.35;;;;;;;;;;4996672;28;20041;-82
2022/05/08 10:32:28;;;;;;;13.75;10.38;;;;;;;;;;4995357;28;20023;-81
2022/05/08 10:35:13;;;;;;;16.52;12.40;;;;;;;;;;4996593;28;20046;-81
2022/05/08 10:37:42;;;;;;;16.95;11.85;;;;;;;;;;4995585;28;20026;-81
2022/05/08 10:40:23;;;;;;;14.35;11.27;;;;;;;;;;4997770;28;20034;-81
2022/05/08 10:42:56;;;;;;;16.95;12.57;;;;;;;;;;4996950;28;20065;-82
2022/05/08 10:45:33;;;;;;;16.20;12.20;;;;;;;;;;4998729;28;20045;-81
2022/05/08 10:48:18;;;;;;;16.48;12.25;;;;;;;;;;4998541;28;20049;-81
2022/05/08 10:50:56;;;;;;;18.25;13.18;;;;;;;;;;4996103;28;20102;-82
2022/05/08 10:53:25;;;;;;;17.38;13.15;;;;;;;;;;4994678;28;20021;-83
2022/05/08 10:55:52;;;;;;;19.60;13.80;;;;;;;;;;4995672;28;20034;-82
2022/05/08 10:58:22;;;;;;;18.15;13.60;;;;;;;;;;4995916;28;20495;-82
2022/05/08 11:01:00;;;;;;;20.35;14.05;;;;;;;;;;4994405;28;20034;-81
2022/05/08 11:03:28;;;;;;;18.33;13.77;;;;;;;;;;4995159;28;20124;-82
2022/05/08 11:05:54;;;;;;;18.63;13.27;;;;;;;;;;4995261;28;20046;-82
2022/05/08 11:08:22;;;;;;;19.40;14.25;;;;;;;;;;4995688;28;20037;-82
2022/05/08 11:10:57;;;;;;;22.48;14.10;;;;;;;;;;4995304;28;20071;-81
2022/05/08 11:13:23;;;;;;;20.20;14.60;;;;;;;;;;4995063;28;20038;-80
2022/05/08 11:15:49;;;;;;;21.33;13.48;;;;;;;;;;4996461;28;20551;-81
2022/05/08 11:18:20;;;;;;;20.40;14.35;;;;;;;;;;4995175;28;20037;-84
2022/05/08 11:21:00;;;;;;;17.00;12.05;;;;;;;;;;4995379;28;20039;-81
2022/05/08 11:23:28;;;;;;;14.07;10.82;;;;;;;;;;4994149;28;20030;-82
2022/05/08 11:25:56;;;;;;;14.25;10.50;;;;;;;;;;4996035;28;20050;-82
2022/05/08 11:28:25;;;;;;;13.93;10.90;;;;;;;;;;4979554;28;20030;-81
2022/05/08 11:30:52;;;;;;;15.43;11.10;;;;;;;;;;4995665;28;20042;-82
2022/05/08 11:36:22;;;;;;;14.88;10.20;;;;;;;;;;4996069;28;20039;-81
2022/05/08 11:38:50;;;;;;;;;;;;;;;;;;4995211;28;20053;-81
2022/05/08 11:41:25;;;;;;;13.02;9.43;;;;;;;;;;5011237;28;19913;-81
2022/05/08 11:43:57;;;;;;;13.32;9.70;;;;;;;;;;4995017;28;20069;-81
2022/05/08 11:46:36;;;;;;;14.55;10.02;;;;;;;;;;4996813;28;20050;-81
2022/05/08 11:49:11;;;;;;;12.55;9.80;;;;;;;;;;4995765;28;20038;-81
2022/05/08 11:51:40;;;;;;;11.70;9.35;;;;;;;;;;4997712;28;20030;-82
2022/05/08 11:54:05;;;;;;;10.02;8.07;;;;;;;;;;4997679;28;20043;-81
2022/05/08 11:56:33;;;;;;;14.63;9.23;;;;;;;;;;4997676;28;20145;-81
2022/05/08 11:59:00;;;;;;;15.18;8.50;;;;;;;;;;4995381;28;20053;-82
2022/05/08 12:01:31;;;;;;;10.63;7.90;;;;;;;;;;4997060;28;20030;-82
2022/05/08 12:04:24;;;;;;;11.60;8.80;;;;;;;;;;4996008;28;20066;-81
2022/05/08 12:07:11;;;;;;;12.20;9.35;;;;;;;;;;4951143;28;20050;-82
2022/05/08 12:09:37;;;;;;;12.45;9.05;;;;;;;;;;4978367;28;20108;-82
2022/05/08 12:12:25;;;;;;;10.18;8.20;;;;;;;;;;4995980;28;20039;-81
2022/05/08 12:15:06;;;;;;;10.77;8.20;;;;;;;;;;4995853;28;20039;-82
2022/05/08 12:17:44;;;;;;;9.27;7.05;;;;;;;;;;4995227;28;20498;-81
2022/05/08 12:20:19;;;;;;;12.63;8.70;;;;;;;;;;4994660;28;20041;-82
2022/05/08 12:22:56;;;;;;;9.70;8.32;;;;;;;;;;4996092;28;20034;-81
2022/05/08 12:25:22;;;;;;;7.82;7.03;;;;;;;;;;4995944;28;20484;-81
2022/05/08 12:27:47;;;;;;;10.98;8.30;;;;;;;;;;4994752;28;20089;-81
2022/05/08 12:30:15;;;;;;;9.07;7.60;;;;;;;;;;4994827;28;20045;-82
2022/05/08 12:32:42;;;;;;;9.40;7.10;;;;;;;;;;4994594;28;20435;-82
2022/05/08 12:35:08;;;;;;;8.45;6.47;;;;;;;;;;4993682;28;20502;-82
2022/05/08 12:37:34;;;;;;;10.50;6.82;;;;;;;;;;4992636;28;20112;-81
2022/05/08 12:40:00;;;;;;;9.07;7.18;;;;;;;;;;4997327;28;20034;-81
2022/05/08 12:42:26;;;;;;;8.82;6.32;;;;;;;;;;4997790;28;20045;-81
2022/05/08 12:44:52;;;;;;;10.98;6.80;;;;;;;;;;4997474;28;20046;-81
2022/05/08 12:47:18;;;;;;;8.05;6.53;;;;;;;;;;4997512;28;20023;-82
2022/05/08 12:49:44;;;;;;;8.95;7.35;;;;;;;;;;4996062;28;20041;-82
2022/05/08 12:52:10;;;;;;;8.32;6.40;;;;;;;;;;4996960;28;20034;-81
2022/05/08 12:54:36;;;;;;;9.13;6.85;;;;;;;;;;4996877;28;20125;-81
2022/05/08 12:57:04;;;;;;;15.95;12.57;;;;;;;;;;4997318;28;20030;-81
2022/05/08 12:59:50;;;;;;;8.50;7.35;;;;;;;;;;4997146;28;20038;-81
2022/05/08 13:02:18;;;;;;;9.77;6.55;;;;;;;;;;4996233;28;20030;-81
2022/05/08 13:04:45;;;;;;;7.97;6.20;;;;;;;;;;4996805;28;20134;-81
2022/05/08 13:07:11;;;;;;;7.93;5.75;;;;;;;;;;4997047;28;20105;-81
2022/05/08 13:09:37;;;;;;;9.85;6.30;;;;;;;;;;4997148;28;20062;-81
2022/05/08 13:12:04;;;;;;;9.48;7.60;;;;;;;;;;4996276;28;20441;-81
2022/05/08 13:14:30;;;;;;;7.55;6.35;;;;;;;;;;4997021;28;20097;-82
2022/05/08 13:16:59;;;;;;;7.63;6.30;;;;;;;;;;4995350;28;20030;-81
2022/05/08 13:19:29;;;;;;;10.75;8.82;;;;;;;;;;4997085;28;20495;-81
2022/05/08 13:21:56;;;;;;;8.07;6.38;;;;;;;;;;4995395;28;20077;-81
2022/05/08 13:24:21;;;;;;;9.98;6.70;;;;;;;;;;4979064;28;20064;-82
2022/05/08 13:26:47;;;;;;;8.93;6.63;;;;;;;;;;4995452;28;20070;-82
2022/05/08 13:29:13;;;;;;;7.35;6.20;;;;;;;;;;4996757;28;20113;-82
2022/05/08 13:31:41;;;;;;;7.13;6.03;;;;;;;;;;4995554;28;20507;-83
2022/05/08 13:34:09;;;;;;;7.47;6.40;;;;;;;;;;4995022;28;20030;-81
2022/05/08 13:36:35;;;;;;;6.93;6.22;;;;;;;;;;4995856;28;20088;-81
2022/05/08 13:39:02;;;;;;;7.93;5.40;;;;;;;;;;4996462;28;20030;-83
2022/05/08 13:41:27;;;;;;;6.18;5.38;;;;;;;;;;4996789;28;20054;-82
2022/05/08 13:43:53;;;;;;;6.38;5.28;;;;;;;;;;4996745;28;20038;-82
2022/05/08 13:46:18;;;;;;;6.28;5.63;;;;;;;;;;4996538;28;20441;-82
2022/05/08 13:48:44;;;;;;;7.80;5.70;;;;;;;;;;4995980;28;20093;-82
2022/05/08 13:51:11;;;;;;;9.25;5.45;;;;;;;;;;4996165;28;20038;-81
2022/05/08 13:53:38;;;;;;;6.35;5.55;;;;;;;;;;4996304;28;20042;-81
2022/05/08 13:56:04;;;;;;;6.72;5.50;;;;;;;;;;4996135;28;20125;-81
2022/05/08 13:58:30;;;;;;;9.07;5.55;;;;;;;;;;4996749;28;20034;-82
2022/05/08 14:00:57;;;;;;;7.30;6.00;;;;;;;;;;4994993;28;20030;-82
2022/05/08 14:03:23;;;;;;;6.60;5.45;;;;;;;;;;4996086;28;20099;-83
2022/05/08 14:05:50;;;;;;;8.43;5.55;;;;;;;;;;4996090;28;20037;-83
2022/05/08 14:08:16;;;;;;;8.27;6.65;;;;;;;;;;4994837;28;20527;-83
2022/05/08 14:10:42;;;;;;;9.02;7.47;;;;;;;;;;4994537;28;20491;-83
2022/05/08 14:13:08;;;;;;;11.00;7.20;;;;;;;;;;4995670;28;20034;-83
2022/05/08 14:15:34;;;;;;;10.27;8.73;;;;;;;;;;4994570;28;20041;-83
2022/05/08 14:18:00;;;;;;;9.25;7.88;;;;;;;;;;4994588;28;20042;-84
2022/05/08 14:20:26;;;;;;;10.48;8.30;;;;;;;;;;4994620;28;20030;-83
2022/05/08 14:22:56;;;;;;;9.68;8.00;;;;;;;;;;4994569;28;20030;-83
2022/05/08 14:25:22;;;;;;;12.25;8.23;;;;;;;;;;4995370;28;20042;-84
2022/05/08 14:27:51;;;;;;;10.02;8.13;;;;;;;;;;4995525;28;20034;-83
2022/05/08 14:30:17;;;;;;;9.88;7.85;;;;;;;;;;4995285;28;20034;-82
2022/05/08 14:38:14;;;;;;;12.00;7.78;;;;;;;;;;4995376;28;20034;-83
2022/05/08 14:40:41;;;;;;;9.05;6.80;;;;;;;;;;4994509;28;20049;-83
2022/05/08 14:43:07;;;;;;;9.70;7.00;;;;;;;;;;4995031;28;20096;-82
2022/05/08 14:45:33;;;;;;;7.07;6.35;;;;;;;;;;4995354;28;20128;-83
2022/05/08 14:47:59;;;;;;;11.48;8.95;;;;;;;;;;4994974;28;20046;-82
2022/05/08 14:50:26;;;;;;;9.45;7.25;;;;;;;;;;4995077;28;20546;-83
2022/05/08 14:52:53;;;;;;;11.20;7.82;;;;;;;;;;4995309;28;20041;-83